createdAt,value
2019-06-10T00:00:51.128Z,94919.56
2019-06-10T00:15:51.573Z,94899.66
2019-06-10T00:30:51.623Z,94905.95
2019-06-10T00:45:53.398Z,94902.25
2019-06-10T01:00:51.850Z,94891.73
2019-06-10T01:15:51.233Z,94888.55
2019-06-10T01:30:51.679Z,94881.77
2019-06-10T01:45:53.756Z,94855.67
2019-06-10T02:00:55.091Z,94861.80
2019-06-10T02:15:51.467Z,94861.45
2019-06-10T02:30:55.449Z,94853.16
2019-06-10T02:45:53.051Z,94865.53
2019-06-10T03:00:54.305Z,94852.47
2019-06-10T03:30:55.290Z,94866.81
2019-06-10T03:45:53.138Z,94868.52
2019-06-10T04:00:52.247Z,94865.64
2019-06-10T04:15:53.303Z,94858.85
2019-06-10T04:30:53.087Z,94869.28
2019-06-10T04:45:52.773Z,94858.22
2019-06-10T05:00:52.381Z,94848.67
2019-06-10T05:15:52.679Z,94847.98
2019-06-10T05:30:53.179Z,94845.47
2019-06-10T05:45:53.000Z,94841.98
2019-06-10T06:00:53.271Z,94840.41
2019-06-10T06:15:52.743Z,94827.61
2019-06-10T06:30:52.692Z,94821.83
2019-06-10T06:45:52.988Z,94816.53
2019-06-10T07:01:03.712Z,94802.69
2019-06-10T07:15:53.332Z,94798.27
2019-06-10T07:30:54.980Z,94809.41
2019-06-10T07:45:53.420Z,94787.97
2019-06-10T08:00:53.141Z,94787.89
2019-06-10T08:15:53.219Z,94784.23
2019-06-10T08:30:53.197Z,94777.11
2019-06-10T08:45:53.010Z,94743.39
2019-06-10T09:00:53.508Z,94735.84
2019-06-10T09:16:09.208Z,94711.34
2019-06-10T09:30:59.672Z,94728.11
2019-06-10T09:45:55.409Z,94710.16
2019-06-10T10:00:57.764Z,94706.50
2019-06-10T10:15:53.872Z,94708.33
2019-06-10T10:30:52.709Z,94740.97
2019-06-10T10:45:54.515Z,94700.04
2019-06-10T11:00:54.490Z,94671.53
2019-06-10T11:15:54.921Z,94649.89
2019-06-10T11:30:55.430Z,94633.38
2019-06-10T11:45:56.879Z,94616.25
2019-06-10T12:00:55.859Z,94605.11
2019-06-10T12:16:48.147Z,94592.19
2019-06-10T12:17:17.482Z,94598.50
2019-06-10T12:31:01.079Z,94591.97
2019-06-10T12:45:52.968Z,94582.30
2019-06-10T13:00:53.161Z,94576.38
2019-06-10T13:15:53.274Z,94556.55
2019-06-10T13:30:54.021Z,94555.95
2019-06-10T13:45:52.963Z,94534.94
2019-06-10T14:00:53.666Z,94525.71
2019-06-10T14:15:53.371Z,94556.69
2019-06-10T14:30:53.905Z,94560.89
2019-06-10T14:45:53.468Z,94571.50
2019-06-10T15:00:54.168Z,94550.19
2019-06-10T15:15:53.431Z,94525.53
2019-06-10T15:30:52.412Z,94486.60
2019-06-10T15:45:52.563Z,94447.16
2019-06-10T16:00:53.493Z,94448.71
2019-06-10T16:30:54.110Z,94433.08
2019-06-10T16:45:57.005Z,94467.20
2019-06-10T17:00:50.604Z,94492.48
2019-06-10T17:15:51.069Z,94500.16
2019-06-10T17:30:52.992Z,94506.56
2019-06-10T17:45:54.082Z,94492.66
2019-06-10T18:00:53.038Z,94476.91
2019-06-10T18:15:53.404Z,94480.20
2019-06-10T18:30:53.243Z,94497.64
2019-06-10T18:45:52.981Z,94500.88
2019-06-10T19:01:05.276Z,94536.36
2019-06-10T19:30:53.569Z,94542.66
2019-06-10T19:45:52.898Z,94549.08
2019-06-10T20:00:54.077Z,94589.03
2019-06-10T20:15:52.493Z,94609.13
2019-06-10T20:30:54.089Z,94606.32
2019-06-10T20:45:51.118Z,94576.08
2019-06-10T21:00:53.888Z,94527.42
2019-06-10T21:15:55.095Z,94521.87
2019-06-10T21:30:58.098Z,94512.53
2019-06-10T21:45:56.177Z,94517.05
2019-06-10T22:01:03.434Z,94499.03
2019-06-10T22:15:57.156Z,94493.27
2019-06-10T22:30:55.648Z,94484.63
2019-06-10T22:45:55.934Z,94487.12
2019-06-10T23:00:53.217Z,94432.55
2019-06-10T23:15:53.471Z,94433.66
2019-06-10T23:30:53.588Z,94424.80
